Time;durP1;ratioP1;P1;durP2;ratioP2;P2;SDS_P1;SDS_P2;PMS_P1;PMS_P2;Temp;Humidity;BMP_temperature;BMP_pressure;BME280_temperature;BME280_humidity;BME280_pressure;Samples;Min_cycle;Max_cycle;Signal;HPM_P1;HPM_P2
2023/10/31 00:02:18;;;;;;;4.15;1.70;;;10.70;99.90;;;;;;5074345;28;20458;-69
2023/10/31 00:04:45;;;;;;;3.95;1.92;;;10.70;99.90;;;;;;5092179;28;20040;-69
2023/10/31 00:07:13;;;;;;;5.03;1.90;;;10.60;99.90;;;;;;5073532;28;20070;-70
2023/10/31 00:09:40;;;;;;;4.07;1.63;;;10.60;99.90;;;;;;5074300;28;20109;-68
2023/10/31 00:12:07;;;;;;;3.17;1.27;;;10.60;99.90;;;;;;5073951;28;20135;-68
2023/10/31 00:14:34;;;;;;;4.80;1.40;;;10.60;99.90;;;;;;5073706;28;20063;-68
2023/10/31 00:17:01;;;;;;;4.68;1.30;;;10.60;99.90;;;;;;5074253;28;20090;-69
2023/10/31 00:19:28;;;;;;;3.83;1.40;;;10.60;99.90;;;;;;5073858;28;20063;-68
2023/10/31 00:21:54;;;;;;;4.15;1.67;;;10.60;99.90;;;;;;5074733;28;20097;-68
2023/10/31 00:24:23;;;;;;;5.22;2.20;;;10.60;99.90;;;;;;5075769;28;20123;-67
2023/10/31 00:26:50;;;;;;;6.05;1.70;;;10.60;99.90;;;;;;5074079;28;20044;-68
2023/10/31 00:29:17;;;;;;;7.88;2.03;;;10.60;99.90;;;;;;5073809;28;20059;-68
2023/10/31 00:31:44;;;;;;;5.88;1.48;;;10.60;99.90;;;;;;5074006;28;20514;-68
2023/10/31 00:34:11;;;;;;;6.05;1.60;;;10.50;99.90;;;;;;5073519;28;20377;-67
2023/10/31 00:36:38;;;;;;;4.05;1.80;;;10.50;99.90;;;;;;5074626;28;20097;-67
2023/10/31 00:39:05;;;;;;;6.90;1.90;;;10.50;99.90;;;;;;5074043;28;20131;-68
2023/10/31 00:41:33;;;;;;;5.30;2.08;;;10.50;99.90;;;;;;5095739;28;20113;-69
2023/10/31 00:44:00;;;;;;;5.22;1.70;;;10.50;99.90;;;;;;5078000;28;20044;-67
2023/10/31 00:46:27;;;;;;;5.38;1.92;;;10.50;99.90;;;;;;5095854;28;20040;-68
2023/10/31 00:48:55;;;;;;;4.82;1.95;;;10.50;99.90;;;;;;5077326;28;20055;-68
2023/10/31 00:51:22;;;;;;;4.97;1.88;;;10.50;99.90;;;;;;5077898;28;20050;-68
2023/10/31 00:53:48;;;;;;;5.22;1.77;;;10.50;99.90;;;;;;5077584;28;20094;-68
2023/10/31 00:56:15;;;;;;;5.43;1.58;;;10.50;99.90;;;;;;5077403;28;20040;-69
2023/10/31 00:58:43;;;;;;;3.92;1.52;;;10.50;99.90;;;;;;5077564;28;20479;-69
2023/10/31 01:01:10;;;;;;;4.28;1.63;;;10.50;99.90;;;;;;5073358;28;20052;-67
2023/10/31 01:03:37;;;;;;;5.32;1.60;;;10.50;99.90;;;;;;5076803;28;20056;-69
2023/10/31 01:06:04;;;;;;;6.40;2.20;;;10.50;99.90;;;;;;5077435;28;20093;-68
2023/10/31 01:08:31;;;;;;;4.78;1.80;;;10.50;99.90;;;;;;5076882;28;20052;-68
2023/10/31 01:10:58;;;;;;;5.90;2.30;;;10.50;99.90;;;;;;5077568;28;20097;-67
2023/10/31 01:13:25;;;;;;;9.38;2.53;;;10.50;99.90;;;;;;5095409;28;20044;-68
2023/10/31 01:15:53;;;;;;;6.45;2.45;;;10.50;99.90;;;;;;5076871;28;20113;-67
2023/10/31 01:18:20;;;;;;;10.82;4.53;;;10.50;99.90;;;;;;5077267;28;20109;-67
2023/10/31 01:20:47;;;;;;;8.70;4.65;;;10.50;99.90;;;;;;5077275;28;20097;-67
2023/10/31 01:23:13;;;;;;;11.95;6.25;;;10.50;99.90;;;;;;5076590;28;20097;-67
2023/10/31 01:25:40;;;;;;;9.75;4.80;;;10.50;99.90;;;;;;5077207;28;20073;-67
2023/10/31 01:28:07;;;;;;;7.25;3.08;;;10.50;99.90;;;;;;5076754;28;20093;-68
2023/10/31 01:30:34;;;;;;;6.20;2.05;;;10.50;99.90;;;;;;5076658;28;20458;-67
2023/10/31 01:33:02;;;;;;;5.28;2.20;;;10.40;99.90;;;;;;5076702;28;20083;-68
2023/10/31 01:35:29;;;;;;;5.78;2.90;;;10.40;99.90;;;;;;5077094;28;20060;-68
2023/10/31 01:37:56;;;;;;;10.77;4.07;;;10.30;99.90;;;;;;5076093;28;20077;-68
2023/10/31 01:40:23;;;;;;;14.52;7.72;;;10.40;99.90;;;;;;5076756;28;20047;-68
2023/10/31 01:42:50;;;;;;;14.63;7.07;;;10.40;99.90;;;;;;5076650;28;20048;-67
2023/10/31 01:45:17;;;;;;;15.80;10.80;;;10.30;99.90;;;;;;5076413;28;20492;-67
2023/10/31 01:47:46;;;;;;;12.32;6.53;;;10.40;99.90;;;;;;5072327;28;20044;-67
2023/10/31 01:50:14;;;;;;;11.32;6.63;;;10.40;99.90;;;;;;5076345;28;20415;-69
2023/10/31 01:52:42;;;;;;;9.95;4.00;;;10.30;99.90;;;;;;5075971;28;20051;-69
2023/10/31 01:55:10;;;;;;;3.42;1.90;;;10.30;99.90;;;;;;5076557;28;20048;-68
2023/10/31 01:57:37;;;;;;;10.38;4.78;;;10.30;99.90;;;;;;5076358;28;20089;-69
2023/10/31 02:00:06;;;;;;;11.80;6.43;;;10.30;99.90;;;;;;5075987;28;20067;-69
2023/10/31 02:02:35;;;;;;;8.60;4.80;;;10.30;99.90;;;;;;5076301;28;20048;-69
2023/10/31 02:05:02;;;;;;;14.05;7.72;;;10.30;99.90;;;;;;5075993;28;20059;-69
2023/10/31 02:07:30;;;;;;;14.10;8.93;;;10.30;99.90;;;;;;5076554;28;20048;-68
2023/10/31 02:09:57;;;;;;;10.27;6.38;;;10.30;99.90;;;;;;5076156;28;20097;-68
2023/10/31 02:12:34;;;;;;;12.07;6.03;;;10.20;99.90;;;;;;5075602;28;20097;-69
2023/10/31 02:15:01;;;;;;;12.38;6.68;;;10.20;99.90;;;;;;5074767;28;20052;-68
2023/10/31 02:17:28;;;;;;;17.00;8.65;;;10.20;99.90;;;;;;5094454;28;20438;-68
2023/10/31 02:19:55;;;;;;;15.45;8.98;;;10.20;99.90;;;;;;5075628;28;20111;-68
2023/10/31 02:22:24;;;;;;;12.43;8.63;;;10.20;99.90;;;;;;5076216;28;20044;-69
2023/10/31 02:24:51;;;;;;;14.23;8.95;;;10.20;99.90;;;;;;5075903;28;20101;-68
2023/10/31 02:27:17;;;;;;;13.18;8.85;;;10.20;99.90;;;;;;5075460;28;20036;-69
2023/10/31 02:29:44;;;;;;;9.20;4.85;;;10.20;99.90;;;;;;5075711;28;20056;-68
2023/10/31 02:32:11;;;;;;;4.50;1.90;;;10.20;99.90;;;;;;5075595;28;20112;-69
2023/10/31 02:34:38;;;;;;;7.10;2.15;;;10.20;99.90;;;;;;5075092;28;20048;-67
2023/10/31 02:37:05;;;;;;;6.00;1.90;;;10.10;99.90;;;;;;5075788;28;20101;-69
2023/10/31 02:39:34;;;;;;;4.68;1.70;;;10.10;99.90;;;;;;5075540;28;20083;-69
2023/10/31 02:42:01;;;;;;;7.65;1.58;;;10.10;99.90;;;;;;5075335;28;20052;-68
2023/10/31 02:44:28;;;;;;;4.45;2.05;;;10.10;99.90;;;;;;5075782;28;20097;-68
2023/10/31 02:46:55;;;;;;;7.40;2.47;;;10.10;99.90;;;;;;5075209;28;20491;-67
2023/10/31 02:49:22;;;;;;;5.07;1.75;;;10.10;99.90;;;;;;5075585;28;20055;-67
2023/10/31 02:51:49;;;;;;;9.65;2.75;;;10.10;99.90;;;;;;5075486;28;20111;-70
2023/10/31 02:54:15;;;;;;;5.55;2.28;;;10.10;99.90;;;;;;5075116;28;20105;-68
2023/10/31 02:56:44;;;;;;;10.23;3.08;;;10.00;99.90;;;;;;5093513;28;20044;-68
2023/10/31 02:59:10;;;;;;;7.30;2.50;;;10.00;99.90;;;;;;5075371;28;20048;-67
2023/10/31 03:01:37;;;;;;;7.78;3.22;;;10.00;99.90;;;;;;5087846;28;20050;-68
2023/10/31 03:04:05;;;;;;;7.40;2.75;;;10.00;99.90;;;;;;5075064;28;20073;-68
2023/10/31 03:06:31;;;;;;;8.10;3.20;;;10.00;99.90;;;;;;5075330;28;20040;-68
2023/10/31 03:08:58;;;;;;;6.78;2.35;;;10.10;99.90;;;;;;5074805;28;20117;-69
2023/10/31 03:11:26;;;;;;;9.93;3.13;;;10.00;99.90;;;;;;5070834;28;20043;-67
2023/10/31 03:13:56;;;;;;;8.68;2.92;;;10.00;99.90;;;;;;5075095;28;20055;-69
2023/10/31 03:16:23;;;;;;;11.27;3.13;;;10.00;99.90;;;;;;5089730;28;20044;-68
2023/10/31 03:18:50;;;;;;;7.60;3.17;;;9.90;99.90;;;;;;5092980;28;20487;-68
2023/10/31 03:21:17;;;;;;;7.85;2.90;;;9.90;99.90;;;;;;5075127;28;20101;-67
2023/10/31 03:23:48;;;;;;;10.30;2.78;;;9.90;99.90;;;;;;5074190;28;20500;-68
2023/10/31 03:26:15;;;;;;;7.03;3.47;;;9.90;99.90;;;;;;5074899;28;20105;-68
2023/10/31 03:28:43;;;;;;;6.18;3.53;;;9.90;99.90;;;;;;5074691;28;20090;-68
2023/10/31 03:31:12;;;;;;;8.68;3.75;;;9.90;99.90;;;;;;5074372;28;20105;-69
2023/10/31 03:33:38;;;;;;;7.40;3.35;;;9.90;99.90;;;;;;5074848;28;20063;-69
2023/10/31 03:36:06;;;;;;;7.22;4.28;;;9.90;99.90;;;;;;5074670;28;20056;-69
2023/10/31 03:38:33;;;;;;;8.93;3.83;;;9.90;99.90;;;;;;5074476;28;20093;-69
2023/10/31 03:40:59;;;;;;;5.53;3.55;;;9.90;99.90;;;;;;5070535;28;20048;-68
2023/10/31 03:43:26;;;;;;;6.15;3.40;;;9.90;99.90;;;;;;5073854;28;20511;-68
2023/10/31 03:45:53;;;;;;;10.55;4.03;;;9.90;99.90;;;;;;5074664;28;20044;-68
2023/10/31 03:48:21;;;;;;;9.77;3.75;;;9.90;99.90;;;;;;5092452;28;20118;-68
2023/10/31 03:50:50;;;;;;;10.65;3.88;;;9.90;99.90;;;;;;5073983;28;20051;-68
2023/10/31 03:53:17;;;;;;;8.27;3.40;;;9.90;99.90;;;;;;5074660;28;20059;-69
2023/10/31 03:55:44;;;;;;;9.70;3.55;;;10.00;99.90;;;;;;5074492;28;20052;-68
2023/10/31 03:58:11;;;;;;;7.80;3.17;;;10.00;99.90;;;;;;5073491;28;20488;-68
2023/10/31 04:00:39;;;;;;;8.23;3.63;;;10.00;99.90;;;;;;5074070;28;20063;-67
2023/10/31 04:03:06;;;;;;;6.90;3.00;;;10.00;99.90;;;;;;5088340;28;20063;-67
2023/10/31 04:05:34;;;;;;;8.00;3.33;;;10.00;99.90;;;;;;5091462;28;20112;-67
2023/10/31 04:08:01;;;;;;;7.28;3.38;;;10.00;99.90;;;;;;5074435;28;20044;-68
2023/10/31 04:10:28;;;;;;;5.00;3.00;;;10.00;99.90;;;;;;5074031;28;20131;-68
2023/10/31 04:12:55;;;;;;;7.55;3.55;;;10.10;99.90;;;;;;5073403;28;20044;-66
2023/10/31 04:15:22;;;;;;;8.45;2.90;;;10.10;99.90;;;;;;5074065;28;20097;-67
2023/10/31 04:17:49;;;;;;;6.55;2.90;;;10.10;99.90;;;;;;5074107;28;20450;-67
2023/10/31 04:20:16;;;;;;;7.63;2.58;;;10.10;99.90;;;;;;5091352;28;20561;-67
2023/10/31 04:22:44;;;;;;;5.07;2.75;;;10.10;99.90;;;;;;5074319;28;20093;-67
2023/10/31 04:25:11;;;;;;;5.72;2.80;;;10.10;99.90;;;;;;5073929;28;20101;-68
2023/10/31 04:27:38;;;;;;;6.53;2.53;;;10.10;99.90;;;;;;5073694;28;20101;-67
2023/10/31 04:30:06;;;;;;;7.40;2.60;;;10.10;99.90;;;;;;5074052;28;20059;-67
2023/10/31 04:32:32;;;;;;;10.25;2.70;;;10.10;99.90;;;;;;5073430;28;20044;-66
2023/10/31 04:34:59;;;;;;;5.95;2.47;;;10.10;99.90;;;;;;5074003;28;20117;-67
2023/10/31 04:37:28;;;;;;;5.97;2.65;;;10.10;99.90;;;;;;5074000;28;20450;-68
2023/10/31 04:39:56;;;;;;;8.00;2.60;;;10.10;99.90;;;;;;5091494;28;20123;-69
2023/10/31 04:42:23;;;;;;;8.98;2.97;;;10.10;99.90;;;;;;5058185;28;20053;-68
2023/10/31 04:44:50;;;;;;;6.47;2.60;;;10.10;99.90;;;;;;5066520;28;20399;-69
2023/10/31 04:47:16;;;;;;;6.28;2.80;;;10.10;99.90;;;;;;5069011;28;20453;-68
2023/10/31 04:49:43;;;;;;;7.05;2.60;;;10.10;99.90;;;;;;5065682;28;20048;-68
2023/10/31 04:52:11;;;;;;;7.20;3.00;;;10.10;99.90;;;;;;5070180;28;20045;-69
2023/10/31 04:54:38;;;;;;;5.82;2.67;;;10.10;99.90;;;;;;5070565;28;20052;-69
2023/10/31 04:57:07;;;;;;;8.70;2.53;;;10.20;99.90;;;;;;5068351;28;20036;-69
2023/10/31 04:59:33;;;;;;;5.93;2.42;;;10.10;99.90;;;;;;5069169;28;20108;-68
2023/10/31 05:02:00;;;;;;;4.97;1.98;;;10.10;99.90;;;;;;5068941;28;20051;-68
2023/10/31 05:04:27;;;;;;;6.78;2.10;;;10.10;99.90;;;;;;5070794;28;20064;-68
2023/10/31 05:06:54;;;;;;;4.60;2.20;;;10.20;99.90;;;;;;5070756;28;20412;-68
2023/10/31 05:09:21;;;;;;;6.95;2.03;;;10.20;99.90;;;;;;5066046;28;20488;-69
2023/10/31 05:11:48;;;;;;;7.57;2.20;;;10.20;99.90;;;;;;5070119;28;20051;-68
2023/10/31 05:14:16;;;;;;;6.03;1.80;;;10.20;99.90;;;;;;5072086;28;20117;-68
2023/10/31 05:16:43;;;;;;;5.32;1.77;;;10.20;99.90;;;;;;5067843;28;20184;-69
2023/10/31 05:19:11;;;;;;;4.60;1.70;;;10.20;99.90;;;;;;5069360;28;20458;-70
2023/10/31 05:21:37;;;;;;;5.45;1.63;;;10.20;99.90;;;;;;5067419;28;20052;-68
2023/10/31 05:24:05;;;;;;;5.28;1.60;;;10.20;99.90;;;;;;5068957;28;20102;-68
2023/10/31 05:26:32;;;;;;;4.15;1.08;;;10.20;99.90;;;;;;5074883;28;20492;-67
2023/10/31 05:28:59;;;;;;;3.42;1.08;;;10.20;99.90;;;;;;5087790;28;20054;-68
2023/10/31 05:31:27;;;;;;;3.28;1.00;;;10.20;99.90;;;;;;5074434;28;20557;-68
2023/10/31 05:33:54;;;;;;;3.15;1.23;;;10.20;99.90;;;;;;5074369;28;20097;-67
2023/10/31 05:36:22;;;;;;;4.40;1.45;;;10.20;99.90;;;;;;5072584;28;20052;-69
2023/10/31 05:38:49;;;;;;;2.47;1.10;;;10.10;99.90;;;;;;5063805;28;20103;-68
2023/10/31 05:41:16;;;;;;;2.22;1.15;;;10.10;99.90;;;;;;5092187;28;20040;-67
2023/10/31 05:43:43;;;;;;;4.38;1.40;;;10.10;99.90;;;;;;5068564;28;20051;-68
2023/10/31 05:46:12;;;;;;;4.18;1.70;;;10.10;99.90;;;;;;5074996;28;20052;-68
2023/10/31 05:48:41;;;;;;;5.43;1.35;;;10.10;99.90;;;;;;5086486;28;20127;-67
2023/10/31 05:51:13;;;;;;;3.35;1.00;;;10.10;99.90;;;;;;5073031;28;20059;-68
2023/10/31 05:53:40;;;;;;;3.83;1.10;;;10.00;99.90;;;;;;5073314;28;20438;-68
2023/10/31 05:56:08;;;;;;;2.25;0.90;;;10.00;99.90;;;;;;5092803;28;20101;-67
2023/10/31 05:58:35;;;;;;;5.13;1.02;;;10.00;99.90;;;;;;5067506;28;20067;-67
2023/10/31 06:01:03;;;;;;;2.70;1.10;;;10.00;99.90;;;;;;5070803;28;20138;-67
2023/10/31 06:03:30;;;;;;;4.43;0.90;;;10.00;99.90;;;;;;5068077;28;20557;-68
2023/10/31 06:05:58;;;;;;;3.58;1.00;;;10.00;99.90;;;;;;5072934;28;20442;-68
2023/10/31 06:08:27;;;;;;;2.75;1.25;;;10.00;99.90;;;;;;5070784;28;20044;-68
2023/10/31 06:10:54;;;;;;;4.78;1.10;;;10.00;99.90;;;;;;5069082;28;20048;-68
2023/10/31 06:13:21;;;;;;;2.92;1.10;;;10.00;99.90;;;;;;5088562;28;20104;-69
2023/10/31 06:15:48;;;;;;;3.00;1.17;;;10.00;99.90;;;;;;5072949;28;20085;-68
2023/10/31 06:18:15;;;;;;;4.28;1.20;;;10.00;99.90;;;;;;5069350;28;20051;-69
2023/10/31 06:20:42;;;;;;;2.38;1.00;;;10.00;99.90;;;;;;5067786;28;20105;-68
2023/10/31 06:23:10;;;;;;;2.95;1.40;;;10.00;99.90;;;;;;5068822;28;20493;-68
2023/10/31 06:25:37;;;;;;;4.35;1.60;;;10.10;99.90;;;;;;5068719;28;20051;-68
2023/10/31 06:28:04;;;;;;;3.08;1.40;;;10.10;99.90;;;;;;5069356;28;20441;-67
2023/10/31 06:30:31;;;;;;;2.40;1.70;;;10.10;99.90;;;;;;5072733;28;20044;-69
2023/10/31 06:32:59;;;;;;;4.65;2.17;;;10.10;99.90;;;;;;5071574;28;20052;-68
2023/10/31 06:35:26;;;;;;;3.97;1.60;;;10.10;99.90;;;;;;5064369;28;20052;-69
2023/10/31 06:37:55;;;;;;;4.28;2.00;;;10.10;99.90;;;;;;5072259;28;20052;-68
2023/10/31 06:40:24;;;;;;;3.47;1.90;;;10.20;99.90;;;;;;5072684;28;20040;-69
2023/10/31 06:42:51;;;;;;;5.18;1.75;;;10.20;99.90;;;;;;5073833;28;20492;-68
2023/10/31 06:45:18;;;;;;;3.80;2.10;;;10.20;99.90;;;;;;5075528;28;20051;-69
2023/10/31 06:47:45;;;;;;;4.30;2.20;;;10.20;99.90;;;;;;5074901;28;20399;-68
2023/10/31 06:50:12;;;;;;;6.50;2.25;;;10.20;99.90;;;;;;5075312;28;20044;-69
2023/10/31 06:52:38;;;;;;;4.53;2.03;;;10.20;99.90;;;;;;5075497;28;20537;-67
2023/10/31 06:55:06;;;;;;;5.28;2.38;;;10.20;99.90;;;;;;5074694;28;20472;-69
2023/10/31 06:57:34;;;;;;;4.53;2.55;;;10.30;99.90;;;;;;5070971;28;20121;-68
2023/10/31 07:00:01;;;;;;;5.57;2.28;;;10.20;99.90;;;;;;5075273;28;20081;-68
2023/10/31 07:02:28;;;;;;;3.80;2.45;;;10.30;99.90;;;;;;5070679;28;20051;-68
2023/10/31 07:04:55;;;;;;;6.57;2.20;;;10.30;99.90;;;;;;5075025;28;20101;-67
2023/10/31 07:07:22;;;;;;;4.43;2.03;;;10.20;99.90;;;;;;5070521;28;20052;-68
2023/10/31 07:09:48;;;;;;;5.25;2.30;;;10.30;99.90;;;;;;5075253;28;20430;-67
2023/10/31 07:12:16;;;;;;;9.00;2.30;;;10.20;99.90;;;;;;5088892;28;20051;-67
2023/10/31 07:14:44;;;;;;;6.82;2.47;;;10.20;99.90;;;;;;5074493;28;20101;-68
2023/10/31 07:17:11;;;;;;;5.47;2.47;;;10.20;99.90;;;;;;5075039;28;20052;-68
2023/10/31 07:19:38;;;;;;;5.55;2.30;;;10.20;99.90;;;;;;5074671;28;20048;-68
2023/10/31 07:22:05;;;;;;;6.40;2.20;;;10.20;99.90;;;;;;5074659;28;20043;-68
2023/10/31 07:24:32;;;;;;;4.68;2.30;;;10.20;99.90;;;;;;5092802;28;20131;-68
2023/10/31 07:26:59;;;;;;;10.43;2.90;;;10.20;99.90;;;;;;5074528;28;20097;-69
2023/10/31 07:29:26;;;;;;;5.50;2.22;;;10.30;99.90;;;;;;5074198;28;20132;-69
2023/10/31 07:31:57;;;;;;;6.00;2.57;;;10.20;99.90;;;;;;5074983;28;20048;-69
2023/10/31 07:34:24;;;;;;;6.63;1.98;;;10.30;99.90;;;;;;5074881;28;20109;-69
2023/10/31 07:36:50;;;;;;;5.88;2.20;;;10.30;99.90;;;;;;5073826;28;20044;-68
2023/10/31 07:39:17;;;;;;;5.05;1.85;;;10.30;99.90;;;;;;5074374;28;20534;-69
2023/10/31 07:41:44;;;;;;;7.53;1.98;;;10.40;99.90;;;;;;5074562;28;20044;-68
2023/10/31 07:44:11;;;;;;;4.70;1.75;;;10.40;99.90;;;;;;5074133;28;20044;-68
2023/10/31 07:46:38;;;;;;;5.22;1.90;;;10.50;99.90;;;;;;5091727;28;20059;-67
2023/10/31 07:49:06;;;;;;;5.85;1.92;;;10.50;99.90;;;;;;5074722;28;20039;-68
2023/10/31 07:51:33;;;;;;;5.15;1.90;;;10.50;99.90;;;;;;5073850;28;20109;-68
2023/10/31 07:54:00;;;;;;;3.85;1.50;;;10.60;99.90;;;;;;5074595;28;20040;-69
2023/10/31 07:56:28;;;;;;;7.10;1.48;;;10.60;99.90;;;;;;5074162;28;20055;-69
2023/10/31 07:58:55;;;;;;;7.28;1.88;;;10.70;99.90;;;;;;5074057;28;20085;-68
2023/10/31 08:01:23;;;;;;;4.78;1.30;;;10.70;99.90;;;;;;5074065;28;20563;-69
2023/10/31 08:03:50;;;;;;;6.90;1.67;;;10.70;99.90;;;;;;5073670;28;20094;-67
2023/10/31 08:06:18;;;;;;;3.08;1.20;;;10.80;99.90;;;;;;5070205;28;20085;-68
2023/10/31 08:08:45;;;;;;;4.95;1.63;;;10.80;99.90;;;;;;5074057;28;20059;-69
2023/10/31 08:11:12;;;;;;;2.45;0.90;;;10.90;99.90;;;;;;5073865;28;20462;-68
2023/10/31 08:13:40;;;;;;;2.88;0.98;;;11.00;99.90;;;;;;5074099;28;20099;-68
2023/10/31 08:16:08;;;;;;;4.15;1.63;;;11.10;99.90;;;;;;5074303;28;20048;-68
2023/10/31 08:18:35;;;;;;;3.38;1.13;;;11.20;99.90;;;;;;5087028;28;20445;-69
2023/10/31 08:21:02;;;;;;;4.03;1.17;;;11.30;99.90;;;;;;5074168;28;20056;-68
2023/10/31 08:23:31;;;;;;;3.95;1.13;;;11.40;99.90;;;;;;5074129;28;20101;-68
2023/10/31 08:25:58;;;;;;;2.03;0.90;;;11.30;99.90;;;;;;5073558;28;20137;-69
2023/10/31 08:28:25;;;;;;;2.83;1.10;;;11.40;99.90;;;;;;5074025;28;20044;-68
2023/10/31 08:30:52;;;;;;;2.35;1.05;;;11.30;99.90;;;;;;5073943;28;20148;-68
2023/10/31 08:33:19;;;;;;;5.13;1.08;;;11.30;99.90;;;;;;5073389;28;20056;-68
2023/10/31 08:35:47;;;;;;;4.53;0.95;;;11.30;99.90;;;;;;5087651;28;20040;-68
2023/10/31 08:38:14;;;;;;;3.88;1.45;;;11.30;99.90;;;;;;5073517;28;20060;-68
2023/10/31 08:40:42;;;;;;;3.03;0.90;;;11.30;99.90;;;;;;5091371;28;20109;-69
2023/10/31 08:43:09;;;;;;;7.43;1.52;;;11.40;99.90;;;;;;5091682;28;20048;-67
2023/10/31 08:45:36;;;;;;;9.15;2.25;;;11.40;99.90;;;;;;5073924;28;20109;-68
2023/10/31 08:48:03;;;;;;;11.10;5.47;;;11.50;99.90;;;;;;5073363;28;20481;-68
2023/10/31 08:50:30;;;;;;;13.05;7.50;;;11.60;99.90;;;;;;5073754;28;20488;-68
2023/10/31 08:52:57;;;;;;;12.23;4.40;;;11.70;99.90;;;;;;5068715;28;20048;-69
2023/10/31 08:55:24;;;;;;;8.07;3.65;;;11.80;99.90;;;;;;5073828;28;20461;-68
2023/10/31 08:57:52;;;;;;;8.88;2.08;;;11.80;99.90;;;;;;5070898;28;20044;-69
2023/10/31 09:00:20;;;;;;;5.57;2.03;;;11.80;99.90;;;;;;5076417;28;20060;-68
2023/10/31 09:02:47;;;;;;;11.13;1.58;;;11.80;99.90;;;;;;5077575;28;20122;-68
2023/10/31 09:05:14;;;;;;;8.60;1.45;;;11.80;99.90;;;;;;5077403;28;20441;-69
2023/10/31 09:07:41;;;;;;;9.18;1.52;;;11.80;99.90;;;;;;5076949;28;20052;-68
2023/10/31 09:10:09;;;;;;;6.68;1.48;;;11.80;99.90;;;;;;5077456;28;20102;-68
2023/10/31 09:12:35;;;;;;;9.07;1.83;;;11.90;99.90;;;;;;5077272;28;20044;-68
2023/10/31 09:15:05;;;;;;;5.55;1.33;;;11.90;99.90;;;;;;5094640;28;20097;-67
2023/10/31 09:17:32;;;;;;;3.85;1.10;;;11.90;99.90;;;;;;5077205;28;20465;-69
2023/10/31 09:19:59;;;;;;;4.80;1.30;;;11.90;99.90;;;;;;5072848;28;20454;-68
2023/10/31 09:22:26;;;;;;;3.67;1.17;;;12.00;99.90;;;;;;5076656;28;20704;-68
2023/10/31 09:24:53;;;;;;;4.55;1.20;;;12.00;99.90;;;;;;5077210;28;20080;-68
2023/10/31 09:27:20;;;;;;;7.40;1.33;;;11.90;99.90;;;;;;5076714;28;20105;-68
2023/10/31 09:29:47;;;;;;;3.67;1.33;;;11.90;99.90;;;;;;5076467;28;20447;-68
2023/10/31 09:32:16;;;;;;;4.43;1.25;;;11.80;99.90;;;;;;5077155;28;20051;-69
2023/10/31 09:34:42;;;;;;;5.80;1.17;;;11.80;99.90;;;;;;5076807;28;20048;-69
2023/10/31 09:37:09;;;;;;;4.25;1.20;;;11.80;99.90;;;;;;5076219;28;20056;-69
2023/10/31 09:39:36;;;;;;;3.83;0.77;;;11.80;99.90;;;;;;5076433;28;20052;-69
2023/10/31 09:42:04;;;;;;;4.05;0.75;;;12.00;99.90;;;;;;5071801;28;20058;-69
2023/10/31 09:44:31;;;;;;;4.93;0.98;;;12.20;99.90;;;;;;5076818;28;20056;-69
2023/10/31 09:46:58;;;;;;;3.92;1.10;;;12.70;99.90;;;;;;5090791;28;20123;-69
2023/10/31 09:49:26;;;;;;;5.70;1.48;;;13.80;99.90;;;;;;5075850;28;20055;-68
2023/10/31 09:51:53;;;;;;;9.30;1.35;;;14.90;99.90;;;;;;5076629;28;20047;-68
2023/10/31 09:54:21;;;;;;;4.47;0.95;;;15.70;99.90;;;;;;5076527;28;20104;-69
2023/10/31 09:56:47;;;;;;;5.53;1.02;;;16.30;99.90;;;;;;5075882;28;20048;-69
2023/10/31 09:59:16;;;;;;;6.93;1.67;;;16.90;99.90;;;;;;5075995;28;20089;-69
2023/10/31 10:01:43;;;;;;;4.03;0.88;;;17.80;99.90;;;;;;5076227;28;20135;-69
2023/10/31 10:04:11;;;;;;;3.53;0.60;;;18.50;99.90;;;;;;5075618;28;20058;-69
2023/10/31 10:06:51;;;;;;;4.20;0.88;;;19.20;99.90;;;;;;5076186;28;20056;-68
2023/10/31 10:09:18;;;;;;;;;;;18.60;99.90;;;;;;5075572;28;20044;-69
2023/10/31 10:11:45;;;;;;;3.15;0.98;;;17.80;99.90;;;;;;5075688;28;19969;-68
2023/10/31 10:14:13;;;;;;;5.50;1.20;;;17.20;99.90;;;;;;5076276;28;20056;-68
2023/10/31 10:16:40;;;;;;;2.65;0.70;;;16.90;99.90;;;;;;5094476;28;20403;-68
2023/10/31 10:19:17;;;;;;;3.30;0.98;;;16.70;99.90;;;;;;5093325;28;20093;-69
2023/10/31 10:21:52;;;;;;;5.07;0.90;;;17.30;99.90;;;;;;5090416;28;20446;-69
2023/10/31 10:24:20;;;;;;;8.23;1.27;;;17.40;99.90;;;;;;5072166;28;20052;-69
2023/10/31 10:26:47;;;;;;;2.30;0.85;;;18.10;99.90;;;;;;5076048;28;20064;-69
2023/10/31 10:29:15;;;;;;;3.80;1.13;;;18.60;99.90;;;;;;5075919;28;20445;-68
2023/10/31 10:31:42;;;;;;;5.95;1.05;;;18.60;99.90;;;;;;5075309;28;20048;-69
2023/10/31 10:34:09;;;;;;;3.17;0.98;;;18.60;99.90;;;;;;5075623;28;20040;-70
2023/10/31 10:36:36;;;;;;;2.22;0.80;;;18.60;99.90;;;;;;5075694;28;20442;-69
2023/10/31 10:39:04;;;;;;;3.95;0.60;;;18.20;99.90;;;;;;5075262;28;20403;-68
2023/10/31 10:41:35;;;;;;;2.20;0.60;;;17.60;99.90;;;;;;5071262;28;20446;-69
2023/10/31 10:44:06;;;;;;;2.60;0.80;;;17.00;99.90;;;;;;5075977;28;20093;-69
2023/10/31 10:46:35;;;;;;;2.30;0.80;;;16.50;99.90;;;;;;5075139;28;20075;-69
2023/10/31 10:49:06;;;;;;;3.80;0.82;;;16.10;99.90;;;;;;5072341;28;20044;-69
2023/10/31 10:51:53;;;;;;;1.35;0.45;;;15.70;99.90;;;;;;5071504;28;20112;-68
2023/10/31 10:54:30;;;;;;;2.70;0.55;;;15.60;99.90;;;;;;5073899;28;20472;-68
2023/10/31 10:57:05;;;;;;;3.20;1.08;;;15.40;99.90;;;;;;5075057;28;20056;-68
2023/10/31 10:59:41;;;;;;;3.10;0.70;;;15.40;99.90;;;;;;5074556;28;20044;-68
2023/10/31 11:02:10;;;;;;;3.00;0.90;;;15.30;99.90;;;;;;5055203;28;20052;-69
2023/10/31 11:04:38;;;;;;;2.42;0.80;;;15.40;99.90;;;;;;5072115;28;20055;-69
2023/10/31 11:07:06;;;;;;;10.02;1.10;;;16.20;99.90;;;;;;5054961;28;20450;-69
2023/10/31 11:09:34;;;;;;;3.60;1.20;;;16.70;99.90;;;;;;5055341;28;20102;-69
2023/10/31 11:12:02;;;;;;;3.28;0.85;;;17.60;99.90;;;;;;5054848;28;20094;-70
2023/10/31 11:14:31;;;;;;;2.22;0.73;;;19.10;99.90;;;;;;5071299;28;20102;-70
2023/10/31 11:17:02;;;;;;;4.32;0.70;;;20.30;99.90;;;;;;5055206;28;20049;-69
2023/10/31 11:19:30;;;;;;;4.10;1.02;;;21.00;99.90;;;;;;5054549;28;20052;-69
2023/10/31 11:21:58;;;;;;;6.30;0.95;;;21.20;99.90;;;;;;5053496;28;20075;-69
2023/10/31 11:24:27;;;;;;;4.95;1.10;;;20.70;99.90;;;;;;5055080;28;20064;-69
2023/10/31 11:27:00;;;;;;;2.90;0.73;;;19.60;99.90;;;;;;5054847;28;20044;-69
2023/10/31 11:29:27;;;;;;;3.13;0.82;;;19.20;99.90;;;;;;5054486;28;20036;-70
2023/10/31 11:31:56;;;;;;;5.32;0.80;;;18.70;99.90;;;;;;5052829;28;20465;-69
2023/10/31 11:34:23;;;;;;;5.78;1.08;;;18.60;99.90;;;;;;5054811;28;20064;-70
2023/10/31 11:36:51;;;;;;;3.45;0.80;;;18.40;99.90;;;;;;5054436;28;20447;-68
2023/10/31 11:39:25;;;;;;;8.27;1.48;;;18.40;99.90;;;;;;5054388;28;20114;-69
2023/10/31 11:41:54;;;;;;;3.83;1.10;;;18.40;99.90;;;;;;5070872;28;20081;-69
2023/10/31 11:44:26;;;;;;;3.40;1.10;;;18.30;99.90;;;;;;5071007;28;20152;-69
2023/10/31 11:46:54;;;;;;;8.32;1.33;;;18.10;99.90;;;;;;5051607;28;20052;-69
2023/10/31 11:49:47;;;;;;;8.85;1.50;;;18.10;99.90;;;;;;5053679;28;20125;-69
2023/10/31 11:52:17;;;;;;;5.05;1.25;;;18.00;99.90;;;;;;5071080;28;20479;-69
2023/10/31 11:54:45;;;;;;;5.25;1.25;;;17.80;99.90;;;;;;5054471;28;20133;-70
2023/10/31 11:57:12;;;;;;;6.75;1.42;;;17.30;99.90;;;;;;5053628;28;20044;-69
2023/10/31 11:59:40;;;;;;;4.30;1.20;;;16.90;99.90;;;;;;5054305;28;20098;-70
2023/10/31 12:02:14;;;;;;;5.13;1.17;;;16.40;99.90;;;;;;5074584;28;20384;-69
2023/10/31 12:04:41;;;;;;;7.00;1.58;;;16.00;99.90;;;;;;5070772;28;20135;-69
2023/10/31 12:07:09;;;;;;;5.72;1.52;;;15.70;99.90;;;;;;5074636;28;20056;-69
2023/10/31 12:09:47;;;;;;;3.88;1.17;;;15.70;99.90;;;;;;5074439;28;20450;-69
2023/10/31 12:12:14;;;;;;;4.30;1.40;;;15.50;99.90;;;;;;5072565;28;20132;-69
2023/10/31 12:14:42;;;;;;;7.45;1.17;;;15.50;99.90;;;;;;5074306;28;20549;-69
2023/10/31 12:17:09;;;;;;;6.25;1.20;;;15.50;99.90;;;;;;5073961;28;20105;-67
2023/10/31 12:19:37;;;;;;;6.82;1.60;;;15.50;99.90;;;;;;5074218;28;20050;-70
2023/10/31 12:22:13;;;;;;;7.13;1.80;;;15.40;99.90;;;;;;5074207;28;20044;-69
2023/10/31 12:24:40;;;;;;;5.30;1.40;;;15.20;99.90;;;;;;5071793;28;20099;-68
2023/10/31 12:27:07;;;;;;;4.97;1.40;;;15.10;99.90;;;;;;5074179;28;20101;-69
2023/10/31 12:29:34;;;;;;;5.70;1.83;;;15.00;99.90;;;;;;5074001;28;20051;-70
2023/10/31 12:32:03;;;;;;;7.45;1.45;;;14.90;99.90;;;;;;5073825;28;20380;-69
2023/10/31 12:34:30;;;;;;;5.03;1.80;;;14.60;99.90;;;;;;5078065;28;20051;-69
2023/10/31 12:36:59;;;;;;;7.28;1.35;;;14.40;99.90;;;;;;5078161;28;20052;-69
2023/10/31 12:39:27;;;;;;;5.65;1.40;;;14.20;99.90;;;;;;5077715;28;20044;-68
2023/10/31 12:41:54;;;;;;;9.32;1.60;;;14.10;99.90;;;;;;5077562;28;20051;-70
2023/10/31 12:44:25;;;;;;;6.65;1.42;;;13.90;99.90;;;;;;5077961;28;20047;-69
2023/10/31 12:46:52;;;;;;;4.22;1.58;;;13.70;99.90;;;;;;5077430;28;20083;-69
2023/10/31 12:49:22;;;;;;;9.30;1.30;;;13.60;99.90;;;;;;5078086;28;20565;-70